sensor_id;sensor_type;location;lat;lon;timestamp;P1;durP1;ratioP1;P2;durP2;ratioP2
31061;SDS011;17724;53.546;9.974;2023-03-15T00:01:42;8.43;;;1.63;;
31061;SDS011;17724;53.546;9.974;2023-03-15T00:05:46;9.03;;;1.20;;
31061;SDS011;17724;53.546;9.974;2023-03-15T00:09:48;7.23;;;1.10;;
31061;SDS011;17724;53.546;9.974;2023-03-15T00:13:48;11.17;;;1.60;;
31061;SDS011;17724;53.546;9.974;2023-03-15T00:17:50;7.47;;;1.43;;
31061;SDS011;17724;53.546;9.974;2023-03-15T00:21:51;7.30;;;1.30;;
31061;SDS011;17724;53.546;9.974;2023-03-15T00:25:51;7.70;;;1.30;;
31061;SDS011;17724;53.546;9.974;2023-03-15T00:29:52;9.03;;;1.77;;
31061;SDS011;17724;53.546;9.974;2023-03-15T00:33:52;10.70;;;1.83;;
31061;SDS011;17724;53.546;9.974;2023-03-15T00:37:56;7.40;;;1.30;;
31061;SDS011;17724;53.546;9.974;2023-03-15T00:41:56;7.57;;;1.03;;
31061;SDS011;17724;53.546;9.974;2023-03-15T00:45:57;9.37;;;1.60;;
31061;SDS011;17724;53.546;9.974;2023-03-15T00:49:57;8.40;;;1.30;;
31061;SDS011;17724;53.546;9.974;2023-03-15T00:53:58;7.10;;;1.40;;
31061;SDS011;17724;53.546;9.974;2023-03-15T00:57:59;9.00;;;2.13;;
31061;SDS011;17724;53.546;9.974;2023-03-15T01:02:00;13.17;;;2.03;;
31061;SDS011;17724;53.546;9.974;2023-03-15T01:06:09;8.37;;;1.53;;
31061;SDS011;17724;53.546;9.974;2023-03-15T01:10:15;9.90;;;1.60;;
31061;SDS011;17724;53.546;9.974;2023-03-15T01:14:16;8.47;;;1.83;;
31061;SDS011;17724;53.546;9.974;2023-03-15T01:18:18;7.73;;;1.80;;
31061;SDS011;17724;53.546;9.974;2023-03-15T01:22:18;7.60;;;1.40;;
31061;SDS011;17724;53.546;9.974;2023-03-15T01:26:20;7.57;;;1.63;;
31061;SDS011;17724;53.546;9.974;2023-03-15T01:30:21;8.33;;;2.00;;
31061;SDS011;17724;53.546;9.974;2023-03-15T01:34:21;8.97;;;1.90;;
31061;SDS011;17724;53.546;9.974;2023-03-15T01:38:22;9.23;;;1.77;;
31061;SDS011;17724;53.546;9.974;2023-03-15T01:42:23;7.57;;;2.10;;
31061;SDS011;17724;53.546;9.974;2023-03-15T01:50:43;9.70;;;1.70;;
31061;SDS011;17724;53.546;9.974;2023-03-15T01:54:46;8.40;;;2.00;;
31061;SDS011;17724;53.546;9.974;2023-03-15T01:58:53;9.73;;;1.87;;
31061;SDS011;17724;53.546;9.974;2023-03-15T02:02:57;7.60;;;1.57;;
31061;SDS011;17724;53.546;9.974;2023-03-15T02:07:06;7.27;;;1.60;;
31061;SDS011;17724;53.546;9.974;2023-03-15T02:11:08;11.00;;;1.83;;
31061;SDS011;17724;53.546;9.974;2023-03-15T02:15:11;8.33;;;1.77;;
31061;SDS011;17724;53.546;9.974;2023-03-15T02:19:18;8.80;;;1.50;;
31061;SDS011;17724;53.546;9.974;2023-03-15T02:23:46;8.10;;;2.10;;
31061;SDS011;17724;53.546;9.974;2023-03-15T02:27:53;7.20;;;1.60;;
31061;SDS011;17724;53.546;9.974;2023-03-15T02:31:55;8.80;;;1.97;;
31061;SDS011;17724;53.546;9.974;2023-03-15T02:36:06;8.83;;;1.43;;
31061;SDS011;17724;53.546;9.974;2023-03-15T02:40:17;7.47;;;1.50;;
31061;SDS011;17724;53.546;9.974;2023-03-15T02:44:27;7.20;;;1.73;;
31061;SDS011;17724;53.546;9.974;2023-03-15T02:48:31;7.30;;;1.50;;
31061;SDS011;17724;53.546;9.974;2023-03-15T02:52:34;7.70;;;1.63;;
31061;SDS011;17724;53.546;9.974;2023-03-15T02:56:35;8.93;;;1.90;;
31061;SDS011;17724;53.546;9.974;2023-03-15T03:00:36;7.40;;;1.77;;
31061;SDS011;17724;53.546;9.974;2023-03-15T03:04:37;9.30;;;1.90;;
31061;SDS011;17724;53.546;9.974;2023-03-15T03:08:38;12.57;;;1.83;;
31061;SDS011;17724;53.546;9.974;2023-03-15T03:12:40;7.30;;;1.63;;
31061;SDS011;17724;53.546;9.974;2023-03-15T03:16:42;7.97;;;1.87;;
31061;SDS011;17724;53.546;9.974;2023-03-15T03:20:42;8.33;;;2.40;;
31061;SDS011;17724;53.546;9.974;2023-03-15T03:24:45;8.50;;;1.80;;
31061;SDS011;17724;53.546;9.974;2023-03-15T03:28:47;9.80;;;2.30;;
31061;SDS011;17724;53.546;9.974;2023-03-15T03:32:49;9.70;;;2.00;;
31061;SDS011;17724;53.546;9.974;2023-03-15T03:36:50;7.60;;;1.83;;
31061;SDS011;17724;53.546;9.974;2023-03-15T03:40:59;7.03;;;1.67;;
31061;SDS011;17724;53.546;9.974;2023-03-15T03:45:02;7.90;;;1.70;;
31061;SDS011;17724;53.546;9.974;2023-03-15T03:49:07;7.83;;;1.63;;
31061;SDS011;17724;53.546;9.974;2023-03-15T03:53:08;9.80;;;1.90;;
31061;SDS011;17724;53.546;9.974;2023-03-15T03:57:09;7.60;;;1.80;;
31061;SDS011;17724;53.546;9.974;2023-03-15T04:01:11;7.47;;;1.50;;
31061;SDS011;17724;53.546;9.974;2023-03-15T04:05:13;8.47;;;2.40;;
31061;SDS011;17724;53.546;9.974;2023-03-15T04:09:15;6.80;;;1.93;;
31061;SDS011;17724;53.546;9.974;2023-03-15T04:13:18;8.53;;;2.40;;
31061;SDS011;17724;53.546;9.974;2023-03-15T04:17:20;7.80;;;2.07;;
31061;SDS011;17724;53.546;9.974;2023-03-15T04:21:20;7.70;;;1.93;;
31061;SDS011;17724;53.546;9.974;2023-03-15T04:25:22;10.00;;;2.13;;
31061;SDS011;17724;53.546;9.974;2023-03-15T04:29:52;7.73;;;2.07;;
31061;SDS011;17724;53.546;9.974;2023-03-15T04:34:10;8.27;;;2.17;;
31061;SDS011;17724;53.546;9.974;2023-03-15T04:38:33;7.33;;;2.10;;
31061;SDS011;17724;53.546;9.974;2023-03-15T04:42:50;9.63;;;2.77;;
31061;SDS011;17724;53.546;9.974;2023-03-15T04:47:23;9.27;;;3.90;;
31061;SDS011;17724;53.546;9.974;2023-03-15T04:51:35;10.13;;;4.00;;
31061;SDS011;17724;53.546;9.974;2023-03-15T04:56:00;15.03;;;4.40;;
31061;SDS011;17724;53.546;9.974;2023-03-15T05:00:21;10.20;;;3.93;;
31061;SDS011;17724;53.546;9.974;2023-03-15T05:05:00;9.90;;;3.90;;
31061;SDS011;17724;53.546;9.974;2023-03-15T05:09:36;11.00;;;4.53;;
31061;SDS011;17724;53.546;9.974;2023-03-15T05:14:03;11.67;;;4.70;;
31061;SDS011;17724;53.546;9.974;2023-03-15T05:18:04;9.07;;;3.30;;
31061;SDS011;17724;53.546;9.974;2023-03-15T05:22:39;11.43;;;4.03;;
31061;SDS011;17724;53.546;9.974;2023-03-15T05:26:40;13.93;;;3.40;;
31061;SDS011;17724;53.546;9.974;2023-03-15T05:31:04;10.90;;;3.80;;
31061;SDS011;17724;53.546;9.974;2023-03-15T05:35:43;10.13;;;3.40;;
31061;SDS011;17724;53.546;9.974;2023-03-15T05:40:04;11.00;;;3.80;;
31061;SDS011;17724;53.546;9.974;2023-03-15T05:44:23;9.90;;;3.10;;
31061;SDS011;17724;53.546;9.974;2023-03-15T05:48:39;10.20;;;3.57;;
31061;SDS011;17724;53.546;9.974;2023-03-15T05:52:58;10.27;;;4.10;;
31061;SDS011;17724;53.546;9.974;2023-03-15T05:57:08;8.90;;;3.40;;
31061;SDS011;17724;53.546;9.974;2023-03-15T06:01:23;10.37;;;4.50;;
31061;SDS011;17724;53.546;9.974;2023-03-15T06:05:40;10.97;;;4.50;;
31061;SDS011;17724;53.546;9.974;2023-03-15T06:09:47;11.07;;;4.57;;
31061;SDS011;17724;53.546;9.974;2023-03-15T06:13:48;14.03;;;4.77;;
31061;SDS011;17724;53.546;9.974;2023-03-15T06:18:02;10.93;;;4.80;;
31061;SDS011;17724;53.546;9.974;2023-03-15T06:22:04;10.57;;;5.10;;
31061;SDS011;17724;53.546;9.974;2023-03-15T06:26:13;12.63;;;4.80;;
31061;SDS011;17724;53.546;9.974;2023-03-15T06:30:14;10.87;;;4.90;;
31061;SDS011;17724;53.546;9.974;2023-03-15T06:34:15;15.10;;;5.97;;
31061;SDS011;17724;53.546;9.974;2023-03-15T06:38:16;11.30;;;5.30;;
31061;SDS011;17724;53.546;9.974;2023-03-15T06:42:17;11.07;;;5.10;;
31061;SDS011;17724;53.546;9.974;2023-03-15T06:46:18;11.13;;;4.80;;
31061;SDS011;17724;53.546;9.974;2023-03-15T06:50:19;12.40;;;5.70;;
31061;SDS011;17724;53.546;9.974;2023-03-15T06:54:19;9.83;;;5.53;;
31061;SDS011;17724;53.546;9.974;2023-03-15T06:58:20;10.47;;;5.10;;
31061;SDS011;17724;53.546;9.974;2023-03-15T07:02:21;12.60;;;5.30;;
31061;SDS011;17724;53.546;9.974;2023-03-15T07:06:22;9.70;;;4.20;;
31061;SDS011;17724;53.546;9.974;2023-03-15T07:10:22;13.53;;;5.00;;
31061;SDS011;17724;53.546;9.974;2023-03-15T07:14:23;9.17;;;4.40;;
31061;SDS011;17724;53.546;9.974;2023-03-15T07:18:23;13.03;;;4.33;;
31061;SDS011;17724;53.546;9.974;2023-03-15T07:22:24;12.80;;;3.70;;
31061;SDS011;17724;53.546;9.974;2023-03-15T07:26:25;12.40;;;4.30;;
31061;SDS011;17724;53.546;9.974;2023-03-15T07:30:26;12.23;;;3.53;;
31061;SDS011;17724;53.546;9.974;2023-03-15T07:34:27;9.87;;;3.93;;
31061;SDS011;17724;53.546;9.974;2023-03-15T07:38:27;7.63;;;2.73;;
31061;SDS011;17724;53.546;9.974;2023-03-15T07:42:28;7.70;;;2.60;;
31061;SDS011;17724;53.546;9.974;2023-03-15T07:46:33;9.07;;;3.10;;
31061;SDS011;17724;53.546;9.974;2023-03-15T07:50:33;9.97;;;2.80;;
31061;SDS011;17724;53.546;9.974;2023-03-15T07:54:34;9.63;;;3.47;;
31061;SDS011;17724;53.546;9.974;2023-03-15T07:58:35;7.90;;;2.00;;
31061;SDS011;17724;53.546;9.974;2023-03-15T08:02:35;8.00;;;2.20;;
31061;SDS011;17724;53.546;9.974;2023-03-15T08:06:36;9.20;;;2.20;;
31061;SDS011;17724;53.546;9.974;2023-03-15T08:10:36;9.50;;;2.03;;
31061;SDS011;17724;53.546;9.974;2023-03-15T08:14:37;7.43;;;1.97;;
31061;SDS011;17724;53.546;9.974;2023-03-15T08:18:37;8.40;;;1.90;;
31061;SDS011;17724;53.546;9.974;2023-03-15T08:22:37;8.40;;;2.17;;
31061;SDS011;17724;53.546;9.974;2023-03-15T08:26:38;8.00;;;1.83;;
31061;SDS011;17724;53.546;9.974;2023-03-15T08:30:39;8.30;;;2.70;;
31061;SDS011;17724;53.546;9.974;2023-03-15T08:34:40;7.70;;;1.70;;
31061;SDS011;17724;53.546;9.974;2023-03-15T08:38:40;8.67;;;2.87;;
31061;SDS011;17724;53.546;9.974;2023-03-15T08:42:41;10.93;;;2.30;;
31061;SDS011;17724;53.546;9.974;2023-03-15T08:46:41;9.50;;;2.90;;
31061;SDS011;17724;53.546;9.974;2023-03-15T08:50:42;8.47;;;2.27;;
31061;SDS011;17724;53.546;9.974;2023-03-15T08:54:43;8.57;;;2.37;;
31061;SDS011;17724;53.546;9.974;2023-03-15T08:58:43;7.10;;;1.87;;
31061;SDS011;17724;53.546;9.974;2023-03-15T09:02:45;8.43;;;1.53;;
31061;SDS011;17724;53.546;9.974;2023-03-15T09:06:48;6.80;;;1.20;;
31061;SDS011;17724;53.546;9.974;2023-03-15T09:10:48;7.77;;;1.77;;
31061;SDS011;17724;53.546;9.974;2023-03-15T09:14:56;7.70;;;1.77;;
31061;SDS011;17724;53.546;9.974;2023-03-15T09:18:56;7.97;;;1.90;;
31061;SDS011;17724;53.546;9.974;2023-03-15T09:22:57;8.23;;;1.33;;
31061;SDS011;17724;53.546;9.974;2023-03-15T09:26:58;8.30;;;1.00;;
31061;SDS011;17724;53.546;9.974;2023-03-15T09:30:58;8.70;;;2.10;;
31061;SDS011;17724;53.546;9.974;2023-03-15T09:34:58;6.47;;;0.90;;
31061;SDS011;17724;53.546;9.974;2023-03-15T09:38:59;6.97;;;1.20;;
31061;SDS011;17724;53.546;9.974;2023-03-15T09:55:41;7.93;;;1.20;;
31061;SDS011;17724;53.546;9.974;2023-03-15T09:59:45;9.37;;;1.27;;
31061;SDS011;17724;53.546;9.974;2023-03-15T10:03:49;11.90;;;1.73;;
31061;SDS011;17724;53.546;9.974;2023-03-15T10:07:51;19.27;;;6.53;;
31061;SDS011;17724;53.546;9.974;2023-03-15T10:11:58;11.37;;;3.60;;
31061;SDS011;17724;53.546;9.974;2023-03-15T10:17:08;7.60;;;1.57;;
31061;SDS011;17724;53.546;9.974;2023-03-15T10:20:41;8.60;;;2.10;;
31061;SDS011;17724;53.546;9.974;2023-03-15T10:28:53;8.30;;;1.40;;
31061;SDS011;17724;53.546;9.974;2023-03-15T10:32:58;8.77;;;1.77;;
31061;SDS011;17724;53.546;9.974;2023-03-15T10:37:01;9.30;;;3.07;;
31061;SDS011;17724;53.546;9.974;2023-03-15T10:41:05;8.80;;;1.50;;
31061;SDS011;17724;53.546;9.974;2023-03-15T10:45:39;8.10;;;1.60;;
31061;SDS011;17724;53.546;9.974;2023-03-15T10:49:34;9.10;;;1.87;;
31061;SDS011;17724;53.546;9.974;2023-03-15T10:53:37;7.80;;;1.60;;
31061;SDS011;17724;53.546;9.974;2023-03-15T10:57:53;10.17;;;1.50;;
31061;SDS011;17724;53.546;9.974;2023-03-15T11:06:19;6.33;;;0.90;;
31061;SDS011;17724;53.546;9.974;2023-03-15T11:10:28;7.50;;;1.20;;
31061;SDS011;17724;53.546;9.974;2023-03-15T11:14:38;8.83;;;2.10;;
31061;SDS011;17724;53.546;9.974;2023-03-15T11:18:45;7.60;;;1.00;;
31061;SDS011;17724;53.546;9.974;2023-03-15T11:23:17;10.43;;;1.30;;
31061;SDS011;17724;53.546;9.974;2023-03-15T11:27:25;8.17;;;1.23;;
31061;SDS011;17724;53.546;9.974;2023-03-15T11:31:27;8.73;;;1.30;;
31061;SDS011;17724;53.546;9.974;2023-03-15T11:35:40;7.90;;;1.70;;
31061;SDS011;17724;53.546;9.974;2023-03-15T11:39:51;7.97;;;1.40;;
31061;SDS011;17724;53.546;9.974;2023-03-15T11:44:44;8.43;;;2.43;;
31061;SDS011;17724;53.546;9.974;2023-03-15T11:48:51;9.60;;;2.20;;
31061;SDS011;17724;53.546;9.974;2023-03-15T11:52:54;8.83;;;1.80;;
31061;SDS011;17724;53.546;9.974;2023-03-15T11:56:56;13.17;;;2.73;;
31061;SDS011;17724;53.546;9.974;2023-03-15T12:05:04;8.67;;;1.30;;
31061;SDS011;17724;53.546;9.974;2023-03-15T12:13:36;10.37;;;2.27;;
31061;SDS011;17724;53.546;9.974;2023-03-15T12:17:58;8.80;;;1.60;;
31061;SDS011;17724;53.546;9.974;2023-03-15T12:21:59;8.50;;;1.30;;
31061;SDS011;17724;53.546;9.974;2023-03-15T12:30:04;10.83;;;2.10;;
31061;SDS011;17724;53.546;9.974;2023-03-15T12:34:11;9.87;;;2.40;;
31061;SDS011;17724;53.546;9.974;2023-03-15T12:38:19;9.33;;;1.50;;
31061;SDS011;17724;53.546;9.974;2023-03-15T12:55:02;8.30;;;1.30;;
31061;SDS011;17724;53.546;9.974;2023-03-15T12:59:28;6.73;;;0.90;;
31061;SDS011;17724;53.546;9.974;2023-03-15T13:03:33;8.37;;;1.30;;
31061;SDS011;17724;53.546;9.974;2023-03-15T13:07:40;11.00;;;1.10;;
31061;SDS011;17724;53.546;9.974;2023-03-15T13:12:00;6.80;;;1.00;;
31061;SDS011;17724;53.546;9.974;2023-03-15T13:16:16;7.33;;;1.43;;
31061;SDS011;17724;53.546;9.974;2023-03-15T13:29:01;9.10;;;1.50;;
31061;SDS011;17724;53.546;9.974;2023-03-15T13:37:22;11.33;;;1.57;;
31061;SDS011;17724;53.546;9.974;2023-03-15T13:41:29;12.90;;;1.83;;
31061;SDS011;17724;53.546;9.974;2023-03-15T13:45:30;12.87;;;3.40;;
31061;SDS011;17724;53.546;9.974;2023-03-15T13:49:31;22.60;;;11.37;;
31061;SDS011;17724;53.546;9.974;2023-03-15T13:53:33;13.33;;;2.80;;
31061;SDS011;17724;53.546;9.974;2023-03-15T13:57:35;15.73;;;4.60;;
31061;SDS011;17724;53.546;9.974;2023-03-15T14:01:36;11.80;;;3.10;;
31061;SDS011;17724;53.546;9.974;2023-03-15T14:05:45;14.90;;;4.20;;
31061;SDS011;17724;53.546;9.974;2023-03-15T14:09:47;15.17;;;4.40;;
31061;SDS011;17724;53.546;9.974;2023-03-15T14:13:49;14.03;;;3.23;;
31061;SDS011;17724;53.546;9.974;2023-03-15T14:18:02;11.43;;;1.90;;
31061;SDS011;17724;53.546;9.974;2023-03-15T14:22:16;12.10;;;2.97;;
31061;SDS011;17724;53.546;9.974;2023-03-15T14:26:19;12.73;;;3.20;;
31061;SDS011;17724;53.546;9.974;2023-03-15T14:30:23;10.87;;;1.70;;
31061;SDS011;17724;53.546;9.974;2023-03-15T14:34:34;9.40;;;2.90;;
31061;SDS011;17724;53.546;9.974;2023-03-15T14:38:49;7.73;;;1.57;;
31061;SDS011;17724;53.546;9.974;2023-03-15T14:42:53;12.70;;;3.43;;
31061;SDS011;17724;53.546;9.974;2023-03-15T14:46:54;11.00;;;2.03;;
31061;SDS011;17724;53.546;9.974;2023-03-15T14:50:55;7.40;;;1.33;;
31061;SDS011;17724;53.546;9.974;2023-03-15T14:54:55;9.63;;;1.90;;
31061;SDS011;17724;53.546;9.974;2023-03-15T14:58:57;11.53;;;5.10;;
31061;SDS011;17724;53.546;9.974;2023-03-15T15:02:58;10.67;;;2.33;;
31061;SDS011;17724;53.546;9.974;2023-03-15T15:06:59;10.83;;;3.40;;
31061;SDS011;17724;53.546;9.974;2023-03-15T15:11:02;9.20;;;2.07;;
31061;SDS011;17724;53.546;9.974;2023-03-15T15:15:21;8.30;;;2.03;;
31061;SDS011;17724;53.546;9.974;2023-03-15T15:19:22;8.67;;;2.20;;
31061;SDS011;17724;53.546;9.974;2023-03-15T15:23:26;11.30;;;3.80;;
31061;SDS011;17724;53.546;9.974;2023-03-15T15:27:27;15.20;;;6.87;;
31061;SDS011;17724;53.546;9.974;2023-03-15T15:31:28;12.40;;;3.23;;
31061;SDS011;17724;53.546;9.974;2023-03-15T15:35:33;17.53;;;5.50;;
31061;SDS011;17724;53.546;9.974;2023-03-15T15:39:33;14.00;;;5.10;;
31061;SDS011;17724;53.546;9.974;2023-03-15T15:43:34;12.53;;;5.00;;
31061;SDS011;17724;53.546;9.974;2023-03-15T15:47:34;12.23;;;4.13;;
31061;SDS011;17724;53.546;9.974;2023-03-15T15:51:36;9.83;;;3.17;;
31061;SDS011;17724;53.546;9.974;2023-03-15T15:55:40;9.60;;;2.57;;
31061;SDS011;17724;53.546;9.974;2023-03-15T15:59:41;11.70;;;2.37;;
31061;SDS011;17724;53.546;9.974;2023-03-15T16:03:41;10.87;;;2.20;;
31061;SDS011;17724;53.546;9.974;2023-03-15T16:07:42;10.40;;;2.67;;
31061;SDS011;17724;53.546;9.974;2023-03-15T16:11:43;12.70;;;3.70;;
31061;SDS011;17724;53.546;9.974;2023-03-15T16:15:44;15.43;;;2.70;;
31061;SDS011;17724;53.546;9.974;2023-03-15T16:19:44;15.37;;;7.73;;
31061;SDS011;17724;53.546;9.974;2023-03-15T16:23:45;11.47;;;2.80;;
31061;SDS011;17724;53.546;9.974;2023-03-15T16:27:53;12.93;;;3.53;;
31061;SDS011;17724;53.546;9.974;2023-03-15T16:31:55;14.63;;;4.10;;
31061;SDS011;17724;53.546;9.974;2023-03-15T16:35:56;13.50;;;2.63;;
31061;SDS011;17724;53.546;9.974;2023-03-15T16:39:58;20.13;;;8.93;;
31061;SDS011;17724;53.546;9.974;2023-03-15T16:44:00;15.97;;;5.83;;
31061;SDS011;17724;53.546;9.974;2023-03-15T16:48:01;12.70;;;4.23;;
31061;SDS011;17724;53.546;9.974;2023-03-15T16:52:02;20.43;;;7.00;;
31061;SDS011;17724;53.546;9.974;2023-03-15T16:56:05;21.70;;;13.53;;
31061;SDS011;17724;53.546;9.974;2023-03-15T17:00:12;17.60;;;6.53;;
31061;SDS011;17724;53.546;9.974;2023-03-15T17:04:16;15.67;;;6.60;;
31061;SDS011;17724;53.546;9.974;2023-03-15T17:08:17;11.43;;;2.60;;
31061;SDS011;17724;53.546;9.974;2023-03-15T17:12:24;10.80;;;3.37;;
31061;SDS011;17724;53.546;9.974;2023-03-15T17:16:26;15.80;;;6.40;;
31061;SDS011;17724;53.546;9.974;2023-03-15T17:20:26;15.93;;;4.60;;
31061;SDS011;17724;53.546;9.974;2023-03-15T17:24:28;43.33;;;23.63;;
31061;SDS011;17724;53.546;9.974;2023-03-15T17:28:28;40.63;;;23.70;;
31061;SDS011;17724;53.546;9.974;2023-03-15T17:32:29;51.97;;;35.80;;
31061;SDS011;17724;53.546;9.974;2023-03-15T17:36:32;57.43;;;46.43;;
31061;SDS011;17724;53.546;9.974;2023-03-15T17:40:36;47.27;;;33.70;;
31061;SDS011;17724;53.546;9.974;2023-03-15T17:44:37;13.10;;;3.80;;
31061;SDS011;17724;53.546;9.974;2023-03-15T17:48:37;35.27;;;19.83;;
31061;SDS011;17724;53.546;9.974;2023-03-15T17:52:38;19.17;;;9.00;;
31061;SDS011;17724;53.546;9.974;2023-03-15T17:56:39;38.30;;;28.00;;
31061;SDS011;17724;53.546;9.974;2023-03-15T18:00:39;30.27;;;21.13;;
31061;SDS011;17724;53.546;9.974;2023-03-15T18:04:42;39.50;;;20.23;;
31061;SDS011;17724;53.546;9.974;2023-03-15T18:08:43;45.53;;;32.87;;
31061;SDS011;17724;53.546;9.974;2023-03-15T18:12:44;67.70;;;46.83;;
31061;SDS011;17724;53.546;9.974;2023-03-15T18:16:47;82.33;;;54.43;;
31061;SDS011;17724;53.546;9.974;2023-03-15T18:20:47;35.33;;;22.17;;
31061;SDS011;17724;53.546;9.974;2023-03-15T18:24:48;47.97;;;29.23;;
31061;SDS011;17724;53.546;9.974;2023-03-15T18:28:48;44.77;;;26.03;;
31061;SDS011;17724;53.546;9.974;2023-03-15T18:32:50;74.13;;;65.97;;
31061;SDS011;17724;53.546;9.974;2023-03-15T18:36:52;26.10;;;11.43;;
31061;SDS011;17724;53.546;9.974;2023-03-15T18:40:53;37.97;;;26.30;;
31061;SDS011;17724;53.546;9.974;2023-03-15T18:44:54;23.37;;;13.60;;
31061;SDS011;17724;53.546;9.974;2023-03-15T18:48:55;23.20;;;12.97;;
31061;SDS011;17724;53.546;9.974;2023-03-15T18:52:55;25.50;;;13.97;;
31061;SDS011;17724;53.546;9.974;2023-03-15T18:56:56;19.67;;;8.90;;
31061;SDS011;17724;53.546;9.974;2023-03-15T19:00:57;13.40;;;6.47;;
31061;SDS011;17724;53.546;9.974;2023-03-15T19:04:58;14.80;;;6.50;;
31061;SDS011;17724;53.546;9.974;2023-03-15T19:08:58;18.67;;;8.97;;
31061;SDS011;17724;53.546;9.974;2023-03-15T19:12:59;21.57;;;14.10;;
31061;SDS011;17724;53.546;9.974;2023-03-15T19:16:59;16.23;;;8.00;;
31061;SDS011;17724;53.546;9.974;2023-03-15T19:21:00;18.27;;;11.13;;
31061;SDS011;17724;53.546;9.974;2023-03-15T19:25:01;21.00;;;7.70;;
31061;SDS011;17724;53.546;9.974;2023-03-15T19:29:02;53.67;;;30.73;;
31061;SDS011;17724;53.546;9.974;2023-03-15T19:33:04;18.23;;;9.43;;
31061;SDS011;17724;53.546;9.974;2023-03-15T19:37:05;24.70;;;13.70;;
31061;SDS011;17724;53.546;9.974;2023-03-15T19:41:06;14.83;;;6.33;;
31061;SDS011;17724;53.546;9.974;2023-03-15T19:45:07;41.63;;;25.93;;
31061;SDS011;17724;53.546;9.974;2023-03-15T19:49:10;16.90;;;4.20;;
31061;SDS011;17724;53.546;9.974;2023-03-15T19:53:11;19.13;;;9.10;;
31061;SDS011;17724;53.546;9.974;2023-03-15T19:57:11;37.00;;;21.80;;
31061;SDS011;17724;53.546;9.974;2023-03-15T20:01:11;20.23;;;10.00;;
31061;SDS011;17724;53.546;9.974;2023-03-15T20:05:15;33.83;;;20.40;;
31061;SDS011;17724;53.546;9.974;2023-03-15T20:09:17;27.27;;;11.97;;
31061;SDS011;17724;53.546;9.974;2023-03-15T20:13:18;38.30;;;25.47;;
31061;SDS011;17724;53.546;9.974;2023-03-15T20:17:18;26.50;;;15.43;;
31061;SDS011;17724;53.546;9.974;2023-03-15T20:21:22;21.60;;;10.33;;
31061;SDS011;17724;53.546;9.974;2023-03-15T20:25:22;23.17;;;10.60;;
31061;SDS011;17724;53.546;9.974;2023-03-15T20:29:23;19.90;;;10.47;;
31061;SDS011;17724;53.546;9.974;2023-03-15T20:33:23;18.70;;;10.40;;
31061;SDS011;17724;53.546;9.974;2023-03-15T20:37:24;22.80;;;11.80;;
31061;SDS011;17724;53.546;9.974;2023-03-15T20:41:26;18.10;;;8.37;;
31061;SDS011;17724;53.546;9.974;2023-03-15T20:45:26;23.83;;;11.00;;
31061;SDS011;17724;53.546;9.974;2023-03-15T20:49:27;16.20;;;8.33;;
31061;SDS011;17724;53.546;9.974;2023-03-15T20:53:27;20.20;;;10.13;;
31061;SDS011;17724;53.546;9.974;2023-03-15T20:57:29;18.30;;;9.50;;
31061;SDS011;17724;53.546;9.974;2023-03-15T21:01:30;21.17;;;9.53;;
31061;SDS011;17724;53.546;9.974;2023-03-15T21:05:31;15.80;;;4.23;;
31061;SDS011;17724;53.546;9.974;2023-03-15T21:09:31;19.87;;;8.50;;
31061;SDS011;17724;53.546;9.974;2023-03-15T21:13:33;23.00;;;9.17;;
31061;SDS011;17724;53.546;9.974;2023-03-15T21:17:34;12.30;;;3.53;;
31061;SDS011;17724;53.546;9.974;2023-03-15T21:21:34;20.70;;;7.50;;
31061;SDS011;17724;53.546;9.974;2023-03-15T21:25:35;27.00;;;11.60;;
31061;SDS011;17724;53.546;9.974;2023-03-15T21:29:35;23.20;;;10.37;;
31061;SDS011;17724;53.546;9.974;2023-03-15T21:33:36;18.70;;;7.50;;
31061;SDS011;17724;53.546;9.974;2023-03-15T21:37:37;13.90;;;3.40;;
31061;SDS011;17724;53.546;9.974;2023-03-15T21:41:37;17.97;;;4.60;;
31061;SDS011;17724;53.546;9.974;2023-03-15T21:45:38;10.30;;;3.50;;
31061;SDS011;17724;53.546;9.974;2023-03-15T21:49:41;13.43;;;3.80;;
31061;SDS011;17724;53.546;9.974;2023-03-15T21:53:44;11.00;;;3.40;;
31061;SDS011;17724;53.546;9.974;2023-03-15T21:57:45;13.73;;;3.10;;
31061;SDS011;17724;53.546;9.974;2023-03-15T22:01:45;15.40;;;3.50;;
31061;SDS011;17724;53.546;9.974;2023-03-15T22:05:47;10.03;;;2.90;;
31061;SDS011;17724;53.546;9.974;2023-03-15T22:09:47;12.00;;;2.40;;
31061;SDS011;17724;53.546;9.974;2023-03-15T22:13:48;14.23;;;2.67;;
31061;SDS011;17724;53.546;9.974;2023-03-15T22:17:49;15.63;;;3.40;;
31061;SDS011;17724;53.546;9.974;2023-03-15T22:21:50;11.40;;;3.30;;
31061;SDS011;17724;53.546;9.974;2023-03-15T22:25:50;8.60;;;2.30;;
31061;SDS011;17724;53.546;9.974;2023-03-15T22:29:54;11.80;;;2.53;;
31061;SDS011;17724;53.546;9.974;2023-03-15T22:33:55;13.33;;;2.70;;
31061;SDS011;17724;53.546;9.974;2023-03-15T22:37:55;10.60;;;3.13;;
31061;SDS011;17724;53.546;9.974;2023-03-15T22:41:56;13.67;;;3.30;;
31061;SDS011;17724;53.546;9.974;2023-03-15T22:45:56;12.70;;;2.40;;
31061;SDS011;17724;53.546;9.974;2023-03-15T22:49:57;9.83;;;2.37;;
31061;SDS011;17724;53.546;9.974;2023-03-15T22:53:58;15.23;;;3.97;;
31061;SDS011;17724;53.546;9.974;2023-03-15T22:57:59;14.87;;;3.40;;
31061;SDS011;17724;53.546;9.974;2023-03-15T23:01:59;9.43;;;2.60;;
31061;SDS011;17724;53.546;9.974;2023-03-15T23:06:00;10.37;;;3.00;;
31061;SDS011;17724;53.546;9.974;2023-03-15T23:10:00;10.60;;;2.90;;
31061;SDS011;17724;53.546;9.974;2023-03-15T23:14:01;9.33;;;2.90;;
31061;SDS011;17724;53.546;9.974;2023-03-15T23:18:01;14.00;;;3.37;;
31061;SDS011;17724;53.546;9.974;2023-03-15T23:22:02;9.20;;;2.27;;
31061;SDS011;17724;53.546;9.974;2023-03-15T23:26:04;14.37;;;3.03;;
31061;SDS011;17724;53.546;9.974;2023-03-15T23:30:05;10.40;;;2.57;;
31061;SDS011;17724;53.546;9.974;2023-03-15T23:34:06;9.70;;;2.90;;
31061;SDS011;17724;53.546;9.974;2023-03-15T23:38:07;10.50;;;2.67;;
31061;SDS011;17724;53.546;9.974;2023-03-15T23:42:08;11.50;;;2.57;;
31061;SDS011;17724;53.546;9.974;2023-03-15T23:46:09;15.30;;;3.00;;
31061;SDS011;17724;53.546;9.974;2023-03-15T23:50:09;11.53;;;2.77;;
31061;SDS011;17724;53.546;9.974;2023-03-15T23:54:12;13.30;;;3.13;;
31061;SDS011;17724;53.546;9.974;2023-03-15T23:58:13;12.97;;;3.67;;
